Flight Track Log - Related Links

Times and Time Zones

All times are in EST time to prevent confusion due to time zone crossing. See the CAY203 flight status page for this flight to view local times or setup timezone preferences in your user account.

Time Position Orientation Groundspeed Altitude Reporting Facility
EST Latitude Longitude Course Direction KTS MPH feet Rate Location/Type
Sun 04:34:53 PM 27.9667 -82.5500 204° Southwest 190 219 800  Level Tampa TRACON
Sun 04:35:29 PM 27.9333 -82.5667 204° Southwest 175 201 2,000 1,938 Climbing Tampa TRACON
Sun 04:36:29 PM 27.8833 -82.5833 196° South 238 274 3,900 2,308 Climbing Tampa TRACON
Sun 04:38:44 PM 27.7283 -82.5614 173° South 297 342 9,500 2,277 Climbing Miami Center
Sun 04:39:44 PM 27.6547 -82.5250 156° South 291 335 11,300 2,550 Climbing Miami Center
Sun 04:40:44 PM 27.5567 -82.4733 155° Southeast 325 374 14,600 3,100 Climbing Miami Center
Sun 04:41:44 PM 27.4647 -82.4197 153° Southeast 352 405 17,500 2,600 Climbing Miami Center
Sun 04:42:44 PM 27.3792 -82.3664 151° Southeast 384 442 19,800 2,000 Climbing Miami Center
Sun 04:43:44 PM 27.2792 -82.3081 153° Southeast 401 461 21,500 2,350 Climbing Miami Center
Sun 04:44:44 PM 27.1603 -82.2486 156° South 418 481 24,500 2,500 Climbing Miami Center
Sun 04:45:44 PM 27.0492 -82.2108 163° South 429 494 26,500 2,100 Climbing Miami Center
Sun 04:46:44 PM 26.9294 -82.1706 163° South 434 499 28,700 2,050 Climbing Miami Center
Sun 04:47:44 PM 26.8142 -82.1328 164° South 434 499 30,600 1,850 Climbing Miami Center
Sun 04:48:44 PM 26.6983 -82.0972 165° South 434 499 32,400 1,800 Climbing Miami Center
Sun 04:49:44 PM 26.5831 -82.0550 162° South 434 499 34,200 1,300 Climbing Miami Center
Sun 04:50:44 PM 26.4694 -82.0197 164° South 429 494 35,000 400 Climbing Miami Center
Sun 04:51:44 PM 26.3583 -81.9756 160° South 429 494 35,000  Level Miami Center
Sun 04:52:44 PM 26.2447 -81.9428 165° South 429 494 35,000  Level Miami Center
Sun 04:53:44 PM 26.1392 -81.9106 165° South 421 484 35,000  Level Miami Center
Sun 04:54:44 PM 26.0258 -81.8711 163° South 416 479 35,000  Level Miami Center
Sun 04:55:44 PM 25.9122 -81.8342 164° South 416 479 35,000  Level Miami Center
Sun 04:56:44 PM 25.7967 -81.7969 164° South 416 479 35,000  Level Miami Center
Sun 04:57:44 PM 25.6850 -81.7600 163° South 421 484 35,000  Level Miami Center
Sun 04:58:44 PM 25.5797 -81.7281 165° South 426 490 35,000  Level Miami Center
Sun 04:59:44 PM 25.4681 -81.6892 163° South 432 497 35,000  Level Miami Center
Sun 05:00:44 PM 25.3400 -81.6519 165° South 432 497 35,000  Level Miami Center
Sun 05:01:44 PM 25.2283 -81.6153 163° South 427 491 35,000  Level Miami Center
Sun 05:02:44 PM 25.1125 -81.5764 163° South 427 491 35,000  Level Miami Center
Sun 05:03:44 PM 24.9969 -81.5400 164° South 432 497 35,000 -50 Level Miami Center
Sun 05:04:44 PM 24.8936 -81.5064 164° South 438 504 34,900  Descending Miami Center
Sun 05:05:44 PM 24.7778 -81.4700 164° South 438 504 35,000 50 Climbing Miami Center
Sun 05:06:44 PM 24.6619 -81.4314 163° South 433 498 35,000  Level Miami Center
Sun 05:07:44 PM 24.5461 -81.3950 164° South 433 498 35,000  Level Miami Center
Sun 05:08:44 PM 24.4283 -81.3567 163° South 433 498 35,000  Level Miami Center
Sun 05:09:44 PM 24.3144 -81.3206 164° South 433 498 35,000  Level Miami Center
Sun 05:10:44 PM 24.1944 -81.2822 164° South 433 498 35,000  Level Miami Center
Sun 05:11:44 PM 24.0756 -81.2781 178° South 433 498 35,000  Level Miami Center
Sun 05:13:00 PM 23.9585 -81.2172 181° South  Level FlightAware Approximate
Sun 05:20:00 PM 23.2188 -81.2271 181° South  Level FlightAware Approximate
Sun 05:21:00 PM 23.1131 -81.2286 181° South  Level FlightAware Approximate
Sun 05:22:00 PM 23.0074 -81.2300 181° South  Level FlightAware Approximate
Sun 05:23:00 PM 22.9018 -81.2314 181° South  Level FlightAware Approximate
Sun 05:24:00 PM 22.7961 -81.2328 181° South  Level FlightAware Approximate
Sun 05:25:00 PM 22.6904 -81.2342 181° South  Level FlightAware Approximate
Sun 05:26:00 PM 22.5847 -81.2356 181° South  Level FlightAware Approximate
Sun 05:27:00 PM 22.4791 -81.2370 181° South  Level FlightAware Approximate
Sun 05:28:00 PM 22.3734 -81.2383 181° South  Level FlightAware Approximate
Sun 05:29:00 PM 22.2677 -81.2397 181° South  Level FlightAware Approximate
Sun 05:30:00 PM 22.1621 -81.2411 181° South  Level FlightAware Approximate
Sun 05:31:00 PM 22.0564 -81.2425 181° South  Level FlightAware Approximate
Sun 05:32:00 PM 21.9507 -81.2439 181° South  Level FlightAware Approximate
Sun 05:33:00 PM 21.8451 -81.2453 181° South  Level FlightAware Approximate
Sun 05:34:00 PM 21.7394 -81.2467 181° South  Level FlightAware Approximate
Sun 05:35:00 PM 21.6337 -81.2480 181° South  Level FlightAware Approximate
Sun 05:36:00 PM 21.5280 -81.2494 181° South  Level FlightAware Approximate
Sun 05:37:00 PM 21.4224 -81.2500 180° South  Level FlightAware Approximate
Sun 05:38:00 PM 21.3167 -81.2500 180° South  Level FlightAware Approximate
Sun 05:39:00 PM 21.2110 -81.2500 180° South  Level FlightAware Approximate
Sun 05:40:00 PM 21.1053 -81.2500 180° South  Level FlightAware Approximate
Sun 05:41:00 PM 21.0010 -81.2623 193° South  Level FlightAware Approximate
Sun 05:42:00 PM 20.8958 -81.2667 180° South  Level FlightAware Approximate
Sun 05:43:00 PM 20.7901 -81.2667 180° South  Level FlightAware Approximate
Sun 05:44:00 PM 20.6844 -81.2667 180° South  Level FlightAware Approximate
Sun 05:45:00 PM 20.5787 -81.2667 180° South  Level FlightAware Approximate
Sun 05:46:00 PM 20.4730 -81.2667 180° South  Level FlightAware Approximate
Sun 05:47:00 PM 20.3674 -81.2667 180° South  Level FlightAware Approximate
Sun 05:48:00 PM 20.2617 -81.2667 180° South  Level FlightAware Approximate
Sun 05:49:00 PM 20.1560 -81.2667 180° South  Level FlightAware Approximate
Sun 05:50:00 PM 20.0503 -81.2667 180° South  Level FlightAware Approximate
Sun 05:51:00 PM 19.9453 -81.2758 189° South  Level FlightAware Approximate
Sun 05:52:00 PM 19.8403 -81.2879 184° South  Level FlightAware Approximate
Sun 05:53:00 PM 19.7349 -81.2960 184° South  Level FlightAware Approximate
Sun 05:54:00 PM 19.6298 -81.3067 187° South  Level FlightAware Approximate
Sun 05:55:00 PM 19.5246 -81.3167 180° South  Level FlightAware Approximate
Sun 05:56:00 PM 19.4204 -81.3333 180° South  Level FlightAware Approximate
Sun 05:57:00 PM 19.3154 -81.3403 191° South  Level FlightAware Approximate
Sun 05:58:00 PM 19.2928 -81.3577 191° South  Level Estimated
Sun 05:59:00 PM 19.2928 -81.3577 191° South  Level Estimated
Sun 06:00:00 PM 19.2928 -81.3577 191° South  Level Estimated
Sun 06:01:00 PM 19.2928 -81.3577 191° South  Level Estimated
Sun 06:02:00 PM 19.2928 -81.3577 191° South  Level Estimated
Sun 06:03:00 PM 19.2928 -81.3577 191° South  Level Estimated
Sun 06:04:00 PM 19.2928 -81.3577 191° South  Level Estimated
Sun 06:05:00 PM 19.2928 -81.3577 191° South  Level Estimated
Sun 06:06:00 PM 19.2928 -81.3577 191° South  Level Estimated
Sun 06:07:00 PM 19.2928 -81.3577 191° South  Level Estimated

Login

Don't have an account? Register now (free) for customized features, flight alerts, and more!